sensor_id;sensor_type;location;lat;lon;timestamp;P1;durP1;ratioP1;P2;durP2;ratioP2
52718;SDS011;38616;42.140;24.760;2022-07-22T00:01:21;5.35;;;2.78;;
52718;SDS011;38616;42.140;24.760;2022-07-22T00:03:47;11.23;;;4.38;;
52718;SDS011;38616;42.140;24.760;2022-07-22T00:06:12;7.40;;;3.42;;
52718;SDS011;38616;42.140;24.760;2022-07-22T00:08:38;6.03;;;3.15;;
52718;SDS011;38616;42.140;24.760;2022-07-22T00:11:03;5.50;;;3.40;;
52718;SDS011;38616;42.140;24.760;2022-07-22T00:13:29;6.60;;;3.35;;
52718;SDS011;38616;42.140;24.760;2022-07-22T00:15:55;7.85;;;3.40;;
52718;SDS011;38616;42.140;24.760;2022-07-22T00:18:20;6.30;;;3.28;;
52718;SDS011;38616;42.140;24.760;2022-07-22T00:20:46;6.60;;;3.40;;
52718;SDS011;38616;42.140;24.760;2022-07-22T00:23:11;10.32;;;4.50;;
52718;SDS011;38616;42.140;24.760;2022-07-22T00:25:37;10.13;;;5.22;;
52718;SDS011;38616;42.140;24.760;2022-07-22T00:28:02;6.75;;;4.38;;
52718;SDS011;38616;42.140;24.760;2022-07-22T00:30:28;10.15;;;4.22;;
52718;SDS011;38616;42.140;24.760;2022-07-22T00:32:53;7.63;;;3.97;;
52718;SDS011;38616;42.140;24.760;2022-07-22T00:35:19;7.80;;;3.70;;
52718;SDS011;38616;42.140;24.760;2022-07-22T00:37:44;10.10;;;4.13;;
52718;SDS011;38616;42.140;24.760;2022-07-22T00:40:10;8.30;;;3.20;;
52718;SDS011;38616;42.140;24.760;2022-07-22T00:42:35;7.28;;;3.85;;
52718;SDS011;38616;42.140;24.760;2022-07-22T00:45:01;6.88;;;3.58;;
52718;SDS011;38616;42.140;24.760;2022-07-22T00:47:27;9.57;;;4.50;;
52718;SDS011;38616;42.140;24.760;2022-07-22T00:49:52;9.75;;;4.10;;
52718;SDS011;38616;42.140;24.760;2022-07-22T00:52:18;8.68;;;4.03;;
52718;SDS011;38616;42.140;24.760;2022-07-22T00:54:44;7.28;;;3.97;;
52718;SDS011;38616;42.140;24.760;2022-07-22T00:57:10;6.90;;;4.30;;
52718;SDS011;38616;42.140;24.760;2022-07-22T00:59:39;6.80;;;3.55;;
52718;SDS011;38616;42.140;24.760;2022-07-22T01:02:04;10.35;;;3.85;;
52718;SDS011;38616;42.140;24.760;2022-07-22T01:04:30;6.90;;;4.03;;
52718;SDS011;38616;42.140;24.760;2022-07-22T01:06:55;9.80;;;4.28;;
52718;SDS011;38616;42.140;24.760;2022-07-22T01:09:20;8.82;;;3.92;;
52718;SDS011;38616;42.140;24.760;2022-07-22T01:11:46;9.10;;;4.38;;
52718;SDS011;38616;42.140;24.760;2022-07-22T01:14:12;17.77;;;4.30;;
52718;SDS011;38616;42.140;24.760;2022-07-22T01:16:37;10.95;;;3.75;;
52718;SDS011;38616;42.140;24.760;2022-07-22T01:19:03;8.48;;;3.95;;
52718;SDS011;38616;42.140;24.760;2022-07-22T01:21:29;11.68;;;3.58;;
52718;SDS011;38616;42.140;24.760;2022-07-22T01:23:55;8.00;;;3.55;;
52718;SDS011;38616;42.140;24.760;2022-07-22T01:26:21;9.43;;;3.97;;
52718;SDS011;38616;42.140;24.760;2022-07-22T01:28:46;4.30;;;3.00;;
52718;SDS011;38616;42.140;24.760;2022-07-22T01:31:12;10.60;;;3.55;;
52718;SDS011;38616;42.140;24.760;2022-07-22T01:33:37;7.45;;;4.13;;
52718;SDS011;38616;42.140;24.760;2022-07-22T01:36:03;9.60;;;3.20;;
52718;SDS011;38616;42.140;24.760;2022-07-22T01:38:29;8.00;;;3.90;;
52718;SDS011;38616;42.140;24.760;2022-07-22T01:40:55;8.55;;;3.60;;
52718;SDS011;38616;42.140;24.760;2022-07-22T01:43:20;6.25;;;3.10;;
52718;SDS011;38616;42.140;24.760;2022-07-22T01:45:47;5.88;;;3.55;;
52718;SDS011;38616;42.140;24.760;2022-07-22T01:48:14;7.55;;;3.70;;
52718;SDS011;38616;42.140;24.760;2022-07-22T01:50:41;9.57;;;4.00;;
52718;SDS011;38616;42.140;24.760;2022-07-22T01:53:07;7.80;;;3.10;;
52718;SDS011;38616;42.140;24.760;2022-07-22T01:55:32;8.77;;;3.53;;
52718;SDS011;38616;42.140;24.760;2022-07-22T01:57:58;9.15;;;4.18;;
52718;SDS011;38616;42.140;24.760;2022-07-22T02:00:24;7.50;;;3.72;;
52718;SDS011;38616;42.140;24.760;2022-07-22T02:02:49;6.93;;;3.47;;
52718;SDS011;38616;42.140;24.760;2022-07-22T02:05:14;7.47;;;3.28;;
52718;SDS011;38616;42.140;24.760;2022-07-22T02:07:40;8.75;;;3.25;;
52718;SDS011;38616;42.140;24.760;2022-07-22T02:10:06;7.32;;;3.38;;
52718;SDS011;38616;42.140;24.760;2022-07-22T02:12:32;9.90;;;3.70;;
52718;SDS011;38616;42.140;24.760;2022-07-22T02:14:57;8.10;;;3.10;;
52718;SDS011;38616;42.140;24.760;2022-07-22T02:17:22;10.77;;;3.22;;
52718;SDS011;38616;42.140;24.760;2022-07-22T02:19:49;8.73;;;3.42;;
52718;SDS011;38616;42.140;24.760;2022-07-22T02:22:14;7.20;;;3.65;;
52718;SDS011;38616;42.140;24.760;2022-07-22T02:24:39;7.25;;;3.38;;
52718;SDS011;38616;42.140;24.760;2022-07-22T02:27:05;9.02;;;3.92;;
52718;SDS011;38616;42.140;24.760;2022-07-22T02:29:31;8.60;;;3.33;;
52718;SDS011;38616;42.140;24.760;2022-07-22T02:31:58;7.47;;;3.03;;
52718;SDS011;38616;42.140;24.760;2022-07-22T02:34:23;8.95;;;3.65;;
52718;SDS011;38616;42.140;24.760;2022-07-22T02:36:49;12.25;;;3.78;;
52718;SDS011;38616;42.140;24.760;2022-07-22T02:39:14;7.32;;;3.63;;
52718;SDS011;38616;42.140;24.760;2022-07-22T02:41:39;8.57;;;4.30;;
52718;SDS011;38616;42.140;24.760;2022-07-22T02:44:05;6.55;;;3.85;;
52718;SDS011;38616;42.140;24.760;2022-07-22T02:46:30;14.88;;;4.00;;
52718;SDS011;38616;42.140;24.760;2022-07-22T02:48:56;12.85;;;4.65;;
52718;SDS011;38616;42.140;24.760;2022-07-22T02:51:22;7.40;;;3.80;;
52718;SDS011;38616;42.140;24.760;2022-07-22T02:53:47;5.85;;;3.55;;
52718;SDS011;38616;42.140;24.760;2022-07-22T02:56:13;10.73;;;4.05;;
52718;SDS011;38616;42.140;24.760;2022-07-22T02:58:39;8.98;;;4.07;;
52718;SDS011;38616;42.140;24.760;2022-07-22T03:01:05;7.40;;;3.90;;
52718;SDS011;38616;42.140;24.760;2022-07-22T03:03:31;12.23;;;4.03;;
52718;SDS011;38616;42.140;24.760;2022-07-22T03:05:57;10.32;;;4.00;;
52718;SDS011;38616;42.140;24.760;2022-07-22T03:08:22;7.53;;;3.53;;
52718;SDS011;38616;42.140;24.760;2022-07-22T03:10:48;11.88;;;4.80;;
52718;SDS011;38616;42.140;24.760;2022-07-22T03:13:14;8.82;;;5.00;;
52718;SDS011;38616;42.140;24.760;2022-07-22T03:15:39;7.18;;;4.20;;
52718;SDS011;38616;42.140;24.760;2022-07-22T03:18:04;9.68;;;4.63;;
52718;SDS011;38616;42.140;24.760;2022-07-22T03:20:30;10.13;;;4.85;;
52718;SDS011;38616;42.140;24.760;2022-07-22T03:22:55;10.27;;;4.40;;
52718;SDS011;38616;42.140;24.760;2022-07-22T03:25:21;11.65;;;4.22;;
52718;SDS011;38616;42.140;24.760;2022-07-22T03:27:46;8.55;;;4.20;;
52718;SDS011;38616;42.140;24.760;2022-07-22T03:30:12;12.27;;;4.55;;
52718;SDS011;38616;42.140;24.760;2022-07-22T03:32:37;8.55;;;4.07;;
52718;SDS011;38616;42.140;24.760;2022-07-22T03:35:03;9.55;;;4.63;;
52718;SDS011;38616;42.140;24.760;2022-07-22T03:37:29;12.10;;;4.90;;
52718;SDS011;38616;42.140;24.760;2022-07-22T03:39:54;11.82;;;4.88;;
52718;SDS011;38616;42.140;24.760;2022-07-22T03:42:20;11.75;;;6.20;;
52718;SDS011;38616;42.140;24.760;2022-07-22T03:44:45;14.70;;;7.05;;
52718;SDS011;38616;42.140;24.760;2022-07-22T03:47:11;23.77;;;12.65;;
52718;SDS011;38616;42.140;24.760;2022-07-22T03:49:41;17.35;;;10.50;;
52718;SDS011;38616;42.140;24.760;2022-07-22T03:52:07;18.88;;;9.07;;
52718;SDS011;38616;42.140;24.760;2022-07-22T03:54:32;18.73;;;10.07;;
52718;SDS011;38616;42.140;24.760;2022-07-22T03:56:58;23.30;;;7.03;;
52718;SDS011;38616;42.140;24.760;2022-07-22T03:59:23;12.43;;;5.90;;
52718;SDS011;38616;42.140;24.760;2022-07-22T04:01:48;11.20;;;5.97;;
52718;SDS011;38616;42.140;24.760;2022-07-22T04:04:14;10.13;;;5.03;;
52718;SDS011;38616;42.140;24.760;2022-07-22T04:06:39;20.88;;;5.88;;
52718;SDS011;38616;42.140;24.760;2022-07-22T04:09:05;13.45;;;5.60;;
52718;SDS011;38616;42.140;24.760;2022-07-22T04:11:30;16.05;;;5.28;;
52718;SDS011;38616;42.140;24.760;2022-07-22T04:13:55;18.17;;;6.22;;
52718;SDS011;38616;42.140;24.760;2022-07-22T04:16:21;15.88;;;6.82;;
52718;SDS011;38616;42.140;24.760;2022-07-22T04:18:46;15.57;;;7.70;;
52718;SDS011;38616;42.140;24.760;2022-07-22T04:21:12;18.48;;;6.50;;
52718;SDS011;38616;42.140;24.760;2022-07-22T04:23:37;20.05;;;6.50;;
52718;SDS011;38616;42.140;24.760;2022-07-22T04:26:04;18.33;;;6.45;;
52718;SDS011;38616;42.140;24.760;2022-07-22T04:28:32;17.60;;;7.32;;
52718;SDS011;38616;42.140;24.760;2022-07-22T04:30:59;19.95;;;8.85;;
52718;SDS011;38616;42.140;24.760;2022-07-22T04:33:25;14.93;;;6.88;;
52718;SDS011;38616;42.140;24.760;2022-07-22T04:35:50;33.95;;;11.40;;
52718;SDS011;38616;42.140;24.760;2022-07-22T04:38:16;22.75;;;11.70;;
52718;SDS011;38616;42.140;24.760;2022-07-22T04:40:42;25.47;;;10.10;;
52718;SDS011;38616;42.140;24.760;2022-07-22T04:43:08;29.40;;;13.52;;
52718;SDS011;38616;42.140;24.760;2022-07-22T04:45:33;29.55;;;10.07;;
52718;SDS011;38616;42.140;24.760;2022-07-22T04:47:58;29.20;;;10.85;;
52718;SDS011;38616;42.140;24.760;2022-07-22T04:50:24;24.10;;;9.23;;
52718;SDS011;38616;42.140;24.760;2022-07-22T04:52:49;21.88;;;7.25;;
52718;SDS011;38616;42.140;24.760;2022-07-22T04:55:15;25.70;;;7.22;;
52718;SDS011;38616;42.140;24.760;2022-07-22T04:57:40;19.40;;;7.32;;
52718;SDS011;38616;42.140;24.760;2022-07-22T05:00:06;16.98;;;7.50;;
52718;SDS011;38616;42.140;24.760;2022-07-22T05:02:32;21.20;;;7.82;;
52718;SDS011;38616;42.140;24.760;2022-07-22T05:04:58;20.70;;;8.00;;
52718;SDS011;38616;42.140;24.760;2022-07-22T05:07:23;16.73;;;7.25;;
52718;SDS011;38616;42.140;24.760;2022-07-22T05:09:49;14.15;;;6.55;;
52718;SDS011;38616;42.140;24.760;2022-07-22T05:12:14;18.67;;;7.28;;
52718;SDS011;38616;42.140;24.760;2022-07-22T05:14:40;19.75;;;6.80;;
52718;SDS011;38616;42.140;24.760;2022-07-22T05:17:09;17.92;;;7.75;;
52718;SDS011;38616;42.140;24.760;2022-07-22T05:19:38;12.52;;;6.72;;
52718;SDS011;38616;42.140;24.760;2022-07-22T05:22:05;20.17;;;7.23;;
52718;SDS011;38616;42.140;24.760;2022-07-22T05:24:31;18.33;;;8.82;;
52718;SDS011;38616;42.140;24.760;2022-07-22T05:26:57;15.68;;;8.73;;
52718;SDS011;38616;42.140;24.760;2022-07-22T05:29:26;19.92;;;8.27;;
52718;SDS011;38616;42.140;24.760;2022-07-22T05:31:51;18.38;;;8.65;;
52718;SDS011;38616;42.140;24.760;2022-07-22T05:34:17;25.27;;;12.73;;
52718;SDS011;38616;42.140;24.760;2022-07-22T05:36:42;34.83;;;14.48;;
52718;SDS011;38616;42.140;24.760;2022-07-22T05:39:07;30.83;;;12.95;;
52718;SDS011;38616;42.140;24.760;2022-07-22T05:41:33;20.38;;;9.90;;
52718;SDS011;38616;42.140;24.760;2022-07-22T05:43:58;19.55;;;8.77;;
52718;SDS011;38616;42.140;24.760;2022-07-22T05:46:24;22.15;;;8.30;;
52718;SDS011;38616;42.140;24.760;2022-07-22T05:48:49;18.00;;;7.13;;
52718;SDS011;38616;42.140;24.760;2022-07-22T05:51:15;17.17;;;7.20;;
52718;SDS011;38616;42.140;24.760;2022-07-22T05:53:41;15.13;;;7.55;;
52718;SDS011;38616;42.140;24.760;2022-07-22T05:56:07;31.98;;;12.60;;
52718;SDS011;38616;42.140;24.760;2022-07-22T05:58:34;19.08;;;9.68;;
52718;SDS011;38616;42.140;24.760;2022-07-22T06:00:59;20.85;;;8.90;;
52718;SDS011;38616;42.140;24.760;2022-07-22T06:03:25;19.23;;;8.57;;
52718;SDS011;38616;42.140;24.760;2022-07-22T06:05:50;22.42;;;9.38;;
52718;SDS011;38616;42.140;24.760;2022-07-22T06:08:16;27.48;;;9.63;;
52718;SDS011;38616;42.140;24.760;2022-07-22T06:10:42;20.70;;;9.18;;
52718;SDS011;38616;42.140;24.760;2022-07-22T06:13:08;37.78;;;8.90;;
52718;SDS011;38616;42.140;24.760;2022-07-22T06:15:33;23.40;;;10.25;;
52718;SDS011;38616;42.140;24.760;2022-07-22T06:17:58;27.83;;;9.93;;
52718;SDS011;38616;42.140;24.760;2022-07-22T06:20:24;22.90;;;10.48;;
52718;SDS011;38616;42.140;24.760;2022-07-22T06:22:49;23.58;;;9.80;;
52718;SDS011;38616;42.140;24.760;2022-07-22T06:25:15;28.75;;;14.10;;
52718;SDS011;38616;42.140;24.760;2022-07-22T06:27:40;29.42;;;10.77;;
52718;SDS011;38616;42.140;24.760;2022-07-22T06:30:06;20.52;;;9.88;;
52718;SDS011;38616;42.140;24.760;2022-07-22T06:32:32;16.17;;;7.60;;
52718;SDS011;38616;42.140;24.760;2022-07-22T06:34:57;17.42;;;7.88;;
52718;SDS011;38616;42.140;24.760;2022-07-22T06:37:22;16.67;;;7.88;;
52718;SDS011;38616;42.140;24.760;2022-07-22T06:39:48;14.75;;;7.65;;
52718;SDS011;38616;42.140;24.760;2022-07-22T06:42:13;28.73;;;8.85;;
52718;SDS011;38616;42.140;24.760;2022-07-22T06:44:39;16.52;;;7.40;;
52718;SDS011;38616;42.140;24.760;2022-07-22T06:47:04;13.77;;;7.55;;
52718;SDS011;38616;42.140;24.760;2022-07-22T06:49:30;14.50;;;7.78;;
52718;SDS011;38616;42.140;24.760;2022-07-22T06:51:55;14.35;;;6.80;;
52718;SDS011;38616;42.140;24.760;2022-07-22T06:54:21;16.65;;;6.18;;
52718;SDS011;38616;42.140;24.760;2022-07-22T06:56:47;14.60;;;6.28;;
52718;SDS011;38616;42.140;24.760;2022-07-22T06:59:13;15.70;;;7.03;;
52718;SDS011;38616;42.140;24.760;2022-07-22T07:01:38;13.88;;;7.25;;
52718;SDS011;38616;42.140;24.760;2022-07-22T07:04:04;15.52;;;5.82;;
52718;SDS011;38616;42.140;24.760;2022-07-22T07:06:29;11.30;;;5.32;;
52718;SDS011;38616;42.140;24.760;2022-07-22T07:08:55;14.30;;;7.15;;
52718;SDS011;38616;42.140;24.760;2022-07-22T07:13:48;11.25;;;5.93;;
52718;SDS011;38616;42.140;24.760;2022-07-22T07:16:13;10.45;;;6.00;;
52718;SDS011;38616;42.140;24.760;2022-07-22T07:18:38;13.73;;;6.45;;
52718;SDS011;38616;42.140;24.760;2022-07-22T07:21:04;11.18;;;5.97;;
52718;SDS011;38616;42.140;24.760;2022-07-22T07:23:29;7.18;;;4.93;;
52718;SDS011;38616;42.140;24.760;2022-07-22T07:25:55;14.52;;;6.80;;
52718;SDS011;38616;42.140;24.760;2022-07-22T07:28:20;11.40;;;6.80;;
52718;SDS011;38616;42.140;24.760;2022-07-22T07:30:46;12.23;;;5.90;;
52718;SDS011;38616;42.140;24.760;2022-07-22T07:33:11;9.63;;;5.22;;
52718;SDS011;38616;42.140;24.760;2022-07-22T07:35:37;11.95;;;5.50;;
52718;SDS011;38616;42.140;24.760;2022-07-22T07:38:02;11.02;;;5.53;;
52718;SDS011;38616;42.140;24.760;2022-07-22T07:40:28;15.43;;;6.00;;
52718;SDS011;38616;42.140;24.760;2022-07-22T07:42:53;12.13;;;5.38;;
52718;SDS011;38616;42.140;24.760;2022-07-22T07:45:19;9.15;;;5.80;;
52718;SDS011;38616;42.140;24.760;2022-07-22T07:47:44;10.15;;;6.28;;
52718;SDS011;38616;42.140;24.760;2022-07-22T07:50:10;13.55;;;5.72;;
52718;SDS011;38616;42.140;24.760;2022-07-22T07:52:39;11.55;;;6.35;;
52718;SDS011;38616;42.140;24.760;2022-07-22T07:55:09;10.18;;;5.65;;
52718;SDS011;38616;42.140;24.760;2022-07-22T07:57:35;14.52;;;6.35;;
52718;SDS011;38616;42.140;24.760;2022-07-22T08:00:03;8.55;;;5.15;;
52718;SDS011;38616;42.140;24.760;2022-07-22T08:02:31;19.85;;;5.70;;
52718;SDS011;38616;42.140;24.760;2022-07-22T08:04:56;18.05;;;5.32;;
52718;SDS011;38616;42.140;24.760;2022-07-22T08:07:22;10.93;;;5.13;;
52718;SDS011;38616;42.140;24.760;2022-07-22T08:09:47;16.30;;;5.82;;
52718;SDS011;38616;42.140;24.760;2022-07-22T08:12:13;11.60;;;5.57;;
52718;SDS011;38616;42.140;24.760;2022-07-22T08:14:38;9.27;;;5.25;;
52718;SDS011;38616;42.140;24.760;2022-07-22T08:17:04;11.73;;;6.10;;
52718;SDS011;38616;42.140;24.760;2022-07-22T08:19:29;13.73;;;5.90;;
52718;SDS011;38616;42.140;24.760;2022-07-22T08:21:55;16.58;;;5.82;;
52718;SDS011;38616;42.140;24.760;2022-07-22T08:24:20;10.98;;;5.63;;
52718;SDS011;38616;42.140;24.760;2022-07-22T08:26:45;13.00;;;5.93;;
52718;SDS011;38616;42.140;24.760;2022-07-22T08:29:11;15.73;;;5.57;;
52718;SDS011;38616;42.140;24.760;2022-07-22T08:31:36;12.93;;;6.53;;
52718;SDS011;38616;42.140;24.760;2022-07-22T08:34:03;12.40;;;5.50;;
52718;SDS011;38616;42.140;24.760;2022-07-22T08:36:30;13.52;;;5.97;;
52718;SDS011;38616;42.140;24.760;2022-07-22T08:38:56;11.43;;;6.18;;
52718;SDS011;38616;42.140;24.760;2022-07-22T08:41:22;10.27;;;5.82;;
52718;SDS011;38616;42.140;24.760;2022-07-22T08:43:48;13.02;;;5.80;;
52718;SDS011;38616;42.140;24.760;2022-07-22T08:46:15;14.40;;;5.70;;
52718;SDS011;38616;42.140;24.760;2022-07-22T08:48:41;12.27;;;5.25;;
52718;SDS011;38616;42.140;24.760;2022-07-22T08:51:06;20.35;;;5.85;;
52718;SDS011;38616;42.140;24.760;2022-07-22T08:53:32;12.15;;;5.68;;
52718;SDS011;38616;42.140;24.760;2022-07-22T08:55:58;10.30;;;6.13;;
52718;SDS011;38616;42.140;24.760;2022-07-22T08:58:25;11.90;;;5.47;;
52718;SDS011;38616;42.140;24.760;2022-07-22T09:01:04;11.50;;;5.97;;
52718;SDS011;38616;42.140;24.760;2022-07-22T09:03:35;10.40;;;5.13;;
52718;SDS011;38616;42.140;24.760;2022-07-22T09:06:10;11.60;;;5.80;;
52718;SDS011;38616;42.140;24.760;2022-07-22T09:11:26;13.80;;;5.90;;
52718;SDS011;38616;42.140;24.760;2022-07-22T09:13:56;10.98;;;5.68;;
52718;SDS011;38616;42.140;24.760;2022-07-22T09:16:40;11.63;;;5.97;;
52718;SDS011;38616;42.140;24.760;2022-07-22T09:19:07;11.23;;;6.15;;
52718;SDS011;38616;42.140;24.760;2022-07-22T09:21:34;11.45;;;6.13;;
52718;SDS011;38616;42.140;24.760;2022-07-22T09:24:02;14.85;;;6.22;;
52718;SDS011;38616;42.140;24.760;2022-07-22T09:26:29;12.15;;;6.72;;
52718;SDS011;38616;42.140;24.760;2022-07-22T09:28:57;12.75;;;5.90;;
52718;SDS011;38616;42.140;24.760;2022-07-22T09:31:27;14.07;;;5.88;;
52718;SDS011;38616;42.140;24.760;2022-07-22T09:33:55;16.67;;;6.68;;
52718;SDS011;38616;42.140;24.760;2022-07-22T09:36:22;18.38;;;6.28;;
52718;SDS011;38616;42.140;24.760;2022-07-22T09:38:48;17.73;;;6.55;;
52718;SDS011;38616;42.140;24.760;2022-07-22T09:41:13;14.20;;;6.60;;
52718;SDS011;38616;42.140;24.760;2022-07-22T09:43:39;13.77;;;6.57;;
52718;SDS011;38616;42.140;24.760;2022-07-22T09:46:05;14.88;;;6.10;;
52718;SDS011;38616;42.140;24.760;2022-07-22T09:48:31;14.18;;;6.60;;
52718;SDS011;38616;42.140;24.760;2022-07-22T09:50:57;12.65;;;5.90;;
52718;SDS011;38616;42.140;24.760;2022-07-22T09:53:26;16.45;;;7.82;;
52718;SDS011;38616;42.140;24.760;2022-07-22T09:55:53;13.52;;;7.20;;
52718;SDS011;38616;42.140;24.760;2022-07-22T09:58:19;11.80;;;6.05;;
52718;SDS011;38616;42.140;24.760;2022-07-22T10:00:45;14.85;;;7.15;;
52718;SDS011;38616;42.140;24.760;2022-07-22T10:03:11;14.90;;;7.10;;
52718;SDS011;38616;42.140;24.760;2022-07-22T10:05:42;12.50;;;6.38;;
52718;SDS011;38616;42.140;24.760;2022-07-22T10:08:08;13.23;;;6.57;;
52718;SDS011;38616;42.140;24.760;2022-07-22T10:10:35;14.27;;;6.88;;
52718;SDS011;38616;42.140;24.760;2022-07-22T10:13:02;9.73;;;6.00;;
52718;SDS011;38616;42.140;24.760;2022-07-22T10:15:30;14.43;;;6.60;;
52718;SDS011;38616;42.140;24.760;2022-07-22T10:17:58;14.18;;;6.88;;
52718;SDS011;38616;42.140;24.760;2022-07-22T10:20:27;14.88;;;6.95;;
52718;SDS011;38616;42.140;24.760;2022-07-22T10:22:55;21.17;;;7.47;;
52718;SDS011;38616;42.140;24.760;2022-07-22T10:25:25;14.85;;;7.38;;
52718;SDS011;38616;42.140;24.760;2022-07-22T10:28:10;16.17;;;8.63;;
52718;SDS011;38616;42.140;24.760;2022-07-22T10:30:53;13.68;;;8.13;;
52718;SDS011;38616;42.140;24.760;2022-07-22T10:33:32;19.17;;;9.15;;
52718;SDS011;38616;42.140;24.760;2022-07-22T10:36:03;15.55;;;8.15;;
52718;SDS011;38616;42.140;24.760;2022-07-22T10:43:26;17.42;;;8.13;;
52718;SDS011;38616;42.140;24.760;2022-07-22T10:48:20;14.00;;;7.47;;
52718;SDS011;38616;42.140;24.760;2022-07-22T10:50:48;16.95;;;7.63;;
52718;SDS011;38616;42.140;24.760;2022-07-22T10:53:17;14.75;;;6.97;;
52718;SDS011;38616;42.140;24.760;2022-07-22T10:56:00;17.60;;;8.20;;
52718;SDS011;38616;42.140;24.760;2022-07-22T11:00:57;14.02;;;6.80;;
52718;SDS011;38616;42.140;24.760;2022-07-22T11:05:50;20.43;;;7.23;;
52718;SDS011;38616;42.140;24.760;2022-07-22T11:08:16;14.90;;;6.50;;
52718;SDS011;38616;42.140;24.760;2022-07-22T11:10:49;11.65;;;6.78;;
52718;SDS011;38616;42.140;24.760;2022-07-22T11:13:34;12.93;;;6.60;;
52718;SDS011;38616;42.140;24.760;2022-07-22T11:18:49;10.55;;;5.45;;
52718;SDS011;38616;42.140;24.760;2022-07-22T11:21:21;13.35;;;6.95;;
52718;SDS011;38616;42.140;24.760;2022-07-22T11:23:49;9.75;;;5.32;;
52718;SDS011;38616;42.140;24.760;2022-07-22T11:26:16;15.50;;;6.95;;
52718;SDS011;38616;42.140;24.760;2022-07-22T11:28:44;12.95;;;6.10;;
52718;SDS011;38616;42.140;24.760;2022-07-22T11:31:13;8.82;;;5.60;;
52718;SDS011;38616;42.140;24.760;2022-07-22T11:33:40;9.27;;;4.70;;
52718;SDS011;38616;42.140;24.760;2022-07-22T11:36:06;10.65;;;6.57;;
52718;SDS011;38616;42.140;24.760;2022-07-22T11:38:47;10.73;;;5.47;;
52718;SDS011;38616;42.140;24.760;2022-07-22T11:41:17;15.13;;;5.90;;
52718;SDS011;38616;42.140;24.760;2022-07-22T11:43:47;14.50;;;5.90;;
52718;SDS011;38616;42.140;24.760;2022-07-22T11:46:15;12.50;;;5.13;;
52718;SDS011;38616;42.140;24.760;2022-07-22T11:48:42;13.45;;;5.68;;
52718;SDS011;38616;42.140;24.760;2022-07-22T11:51:08;14.57;;;6.78;;
52718;SDS011;38616;42.140;24.760;2022-07-22T11:53:38;15.65;;;7.22;;
52718;SDS011;38616;42.140;24.760;2022-07-22T11:56:04;11.55;;;5.25;;
52718;SDS011;38616;42.140;24.760;2022-07-22T11:58:38;10.93;;;5.35;;
52718;SDS011;38616;42.140;24.760;2022-07-22T12:01:08;9.52;;;5.55;;
52718;SDS011;38616;42.140;24.760;2022-07-22T12:03:36;7.85;;;4.60;;
52718;SDS011;38616;42.140;24.760;2022-07-22T12:06:04;11.60;;;4.82;;
52718;SDS011;38616;42.140;24.760;2022-07-22T12:08:32;9.60;;;5.35;;
52718;SDS011;38616;42.140;24.760;2022-07-22T12:13:29;9.40;;;3.80;;
52718;SDS011;38616;42.140;24.760;2022-07-22T12:15:55;8.57;;;3.78;;
52718;SDS011;38616;42.140;24.760;2022-07-22T12:18:22;6.20;;;3.63;;
52718;SDS011;38616;42.140;24.760;2022-07-22T12:20:50;7.05;;;3.63;;
52718;SDS011;38616;42.140;24.760;2022-07-22T12:23:16;7.68;;;4.93;;
52718;SDS011;38616;42.140;24.760;2022-07-22T12:26:16;7.53;;;4.13;;
52718;SDS011;38616;42.140;24.760;2022-07-22T12:28:34;5.15;;;3.30;;
52718;SDS011;38616;42.140;24.760;2022-07-22T12:30:59;5.80;;;3.50;;
52718;SDS011;38616;42.140;24.760;2022-07-22T12:33:25;12.35;;;3.50;;
52718;SDS011;38616;42.140;24.760;2022-07-22T12:35:57;8.40;;;3.47;;
52718;SDS011;38616;42.140;24.760;2022-07-22T12:38:25;6.50;;;3.35;;
52718;SDS011;38616;42.140;24.760;2022-07-22T12:40:50;7.82;;;4.13;;
52718;SDS011;38616;42.140;24.760;2022-07-22T12:43:16;6.38;;;3.83;;
52718;SDS011;38616;42.140;24.760;2022-07-22T12:45:42;8.80;;;3.85;;
52718;SDS011;38616;42.140;24.760;2022-07-22T12:48:08;8.68;;;3.28;;
52718;SDS011;38616;42.140;24.760;2022-07-22T12:55:30;11.13;;;3.60;;
52718;SDS011;38616;42.140;24.760;2022-07-22T12:57:56;5.70;;;3.40;;
52718;SDS011;38616;42.140;24.760;2022-07-22T13:00:23;7.40;;;3.17;;
52718;SDS011;38616;42.140;24.760;2022-07-22T13:02:50;8.15;;;3.20;;
52718;SDS011;38616;42.140;24.760;2022-07-22T13:05:16;8.38;;;2.72;;
52718;SDS011;38616;42.140;24.760;2022-07-22T13:07:42;7.68;;;3.28;;
52718;SDS011;38616;42.140;24.760;2022-07-22T13:10:09;4.60;;;3.22;;
52718;SDS011;38616;42.140;24.760;2022-07-22T13:12:35;5.30;;;3.20;;
52718;SDS011;38616;42.140;24.760;2022-07-22T13:15:01;10.23;;;3.78;;
52718;SDS011;38616;42.140;24.760;2022-07-22T13:17:26;5.30;;;3.00;;
52718;SDS011;38616;42.140;24.760;2022-07-22T13:19:52;8.95;;;3.25;;
52718;SDS011;38616;42.140;24.760;2022-07-22T13:22:18;7.47;;;3.60;;
52718;SDS011;38616;42.140;24.760;2022-07-22T13:24:43;7.18;;;3.58;;
52718;SDS011;38616;42.140;24.760;2022-07-22T13:27:09;8.43;;;3.72;;
52718;SDS011;38616;42.140;24.760;2022-07-22T13:29:34;6.43;;;3.53;;
52718;SDS011;38616;42.140;24.760;2022-07-22T13:32:00;5.68;;;2.97;;
52718;SDS011;38616;42.140;24.760;2022-07-22T13:34:25;5.88;;;3.20;;
52718;SDS011;38616;42.140;24.760;2022-07-22T13:36:50;4.57;;;2.60;;
52718;SDS011;38616;42.140;24.760;2022-07-22T13:39:16;5.13;;;3.15;;
52718;SDS011;38616;42.140;24.760;2022-07-22T13:41:41;8.70;;;3.42;;
52718;SDS011;38616;42.140;24.760;2022-07-22T13:44:07;8.15;;;3.13;;
52718;SDS011;38616;42.140;24.760;2022-07-22T13:46:35;12.35;;;3.10;;
52718;SDS011;38616;42.140;24.760;2022-07-22T13:49:01;9.40;;;3.40;;
52718;SDS011;38616;42.140;24.760;2022-07-22T13:51:26;7.88;;;3.15;;
52718;SDS011;38616;42.140;24.760;2022-07-22T13:53:52;7.70;;;3.03;;
52718;SDS011;38616;42.140;24.760;2022-07-22T13:56:17;4.65;;;2.97;;
52718;SDS011;38616;42.140;24.760;2022-07-22T13:58:42;6.60;;;3.00;;
52718;SDS011;38616;42.140;24.760;2022-07-22T14:01:08;13.98;;;3.53;;
52718;SDS011;38616;42.140;24.760;2022-07-22T14:03:37;7.82;;;2.90;;
52718;SDS011;38616;42.140;24.760;2022-07-22T14:06:03;11.32;;;3.05;;
52718;SDS011;38616;42.140;24.760;2022-07-22T14:10:55;14.73;;;4.03;;
52718;SDS011;38616;42.140;24.760;2022-07-22T14:13:20;5.57;;;2.58;;
52718;SDS011;38616;42.140;24.760;2022-07-22T14:15:46;9.75;;;2.70;;
52718;SDS011;38616;42.140;24.760;2022-07-22T14:18:11;7.97;;;3.22;;
52718;SDS011;38616;42.140;24.760;2022-07-22T14:20:37;8.85;;;3.08;;
52718;SDS011;38616;42.140;24.760;2022-07-22T14:23:03;7.40;;;3.10;;
52718;SDS011;38616;42.140;24.760;2022-07-22T14:25:30;10.23;;;3.05;;
52718;SDS011;38616;42.140;24.760;2022-07-22T14:27:56;8.07;;;3.63;;
52718;SDS011;38616;42.140;24.760;2022-07-22T14:30:22;8.00;;;3.25;;
52718;SDS011;38616;42.140;24.760;2022-07-22T14:32:47;11.00;;;3.40;;
52718;SDS011;38616;42.140;24.760;2022-07-22T14:35:13;5.68;;;3.90;;
52718;SDS011;38616;42.140;24.760;2022-07-22T14:37:38;6.68;;;3.13;;
52718;SDS011;38616;42.140;24.760;2022-07-22T14:40:04;4.00;;;2.80;;
52718;SDS011;38616;42.140;24.760;2022-07-22T14:42:30;6.53;;;2.85;;
52718;SDS011;38616;42.140;24.760;2022-07-22T14:44:55;7.82;;;2.72;;
52718;SDS011;38616;42.140;24.760;2022-07-22T14:47:21;9.63;;;3.25;;
52718;SDS011;38616;42.140;24.760;2022-07-22T14:49:46;5.28;;;3.28;;
52718;SDS011;38616;42.140;24.760;2022-07-22T14:52:11;6.43;;;3.17;;